Time;durP1;ratioP1;P1;durP2;ratioP2;P2;SDS_P1;SDS_P2;PMS_P1;PMS_P2;Temp;Humidity;BMP_temperature;BMP_pressure;BME280_temperature;BME280_humidity;BME280_pressure;Samples;Min_cycle;Max_cycle;Signal;HPM_P1;HPM_P2
2022/06/12 00:00:49;;;;;;;15.60;4.25;;;12.60;99.90;;;;;;5049467;28;20100;-65
2022/06/12 00:03:16;;;;;;;21.25;3.25;;;12.50;99.90;;;;;;5066046;28;20182;-68
2022/06/12 00:05:47;;;;;;;20.83;4.35;;;12.40;99.90;;;;;;5068360;28;20448;-69
2022/06/12 00:08:13;;;;;;;20.05;3.97;;;12.30;99.90;;;;;;5061924;28;20048;-71
2022/06/12 00:10:45;;;;;;;17.35;3.53;;;12.30;99.90;;;;;;5084813;28;20063;-62
2022/06/12 00:13:13;;;;;;;14.40;3.80;;;12.20;99.90;;;;;;5068341;28;20060;-64
2022/06/12 00:15:39;;;;;;;27.33;4.85;;;12.20;99.90;;;;;;5067717;28;20055;-69
2022/06/12 00:18:05;;;;;;;16.63;3.72;;;12.20;99.90;;;;;;5047253;28;20040;-61
2022/06/12 00:20:31;;;;;;;16.23;4.28;;;12.10;99.90;;;;;;5057888;28;20375;-65
2022/06/12 00:22:58;;;;;;;15.45;3.25;;;12.10;99.90;;;;;;5045750;28;20126;-63
2022/06/12 00:25:27;;;;;;;13.57;4.05;;;12.10;99.90;;;;;;5051013;28;20054;-60
2022/06/12 00:27:56;;;;;;;16.02;3.28;;;12.00;99.90;;;;;;5085908;28;20078;-61
2022/06/12 00:30:25;;;;;;;14.13;4.03;;;12.00;99.90;;;;;;5067912;28;20165;-66
2022/06/12 00:32:52;;;;;;;18.02;3.80;;;12.00;99.90;;;;;;5067853;28;20124;-66
2022/06/12 00:35:24;;;;;;;14.02;3.30;;;12.00;99.90;;;;;;5071741;28;20141;-70
2022/06/12 00:37:50;;;;;;;12.32;3.00;;;12.00;99.90;;;;;;5067359;28;20051;-64
2022/06/12 00:40:17;;;;;;;11.02;2.90;;;12.00;99.90;;;;;;5068366;28;20148;-61
2022/06/12 00:42:51;;;;;;;17.92;3.80;;;12.00;99.90;;;;;;5067379;28;20162;-63
2022/06/12 00:45:32;;;;;;;11.52;2.53;;;12.00;99.90;;;;;;5064862;28;20052;-65
2022/06/12 00:48:05;;;;;;;12.95;3.20;;;11.90;99.90;;;;;;5076962;28;20562;-63
2022/06/12 00:50:32;;;;;;;16.60;3.00;;;11.90;99.90;;;;;;5051054;28;20554;-66
2022/06/12 00:52:58;;;;;;;9.73;3.13;;;11.90;99.90;;;;;;5068208;28;20315;-62
2022/06/12 00:55:31;;;;;;;14.23;2.75;;;11.90;99.90;;;;;;5034236;28;20055;-62
2022/06/12 00:58:05;;;;;;;13.25;2.63;;;11.90;99.90;;;;;;5066509;28;20135;-66
2022/06/12 01:00:33;;;;;;;13.98;2.92;;;11.80;99.90;;;;;;5067418;28;20436;-63
2022/06/12 01:02:59;;;;;;;14.18;2.72;;;11.80;99.90;;;;;;5067162;28;20383;-69
2022/06/12 01:08:10;;;;;;;21.98;3.83;;;11.80;99.90;;;;;;5069936;28;20060;-69
2022/06/12 01:10:39;;;;;;;11.73;2.08;;;11.80;99.90;;;;;;5052606;28;20056;-62
2022/06/12 01:13:11;;;;;;;5.20;1.90;;;11.70;99.90;;;;;;5071513;28;20096;-62
2022/06/12 01:15:42;;;;;;;14.55;2.97;;;11.70;99.90;;;;;;5089521;28;20048;-70
2022/06/12 01:18:12;;;;;;;13.38;2.63;;;11.70;99.90;;;;;;5069649;28;20043;-61
2022/06/12 01:20:50;;;;;;;11.43;2.38;;;11.80;99.90;;;;;;5070990;28;20051;-62
2022/06/12 01:23:50;;;;;;;10.02;2.28;;;11.80;99.90;;;;;;5068520;28;20059;-68
2022/06/12 01:26:31;;;;;;;12.32;2.30;;;11.80;99.90;;;;;;5067912;28;20119;-62
2022/06/12 01:28:59;;;;;;;8.13;2.08;;;11.80;99.90;;;;;;5068181;28;20112;-65
2022/06/12 01:31:49;;;;;;;16.45;2.90;;;11.80;99.90;;;;;;5060921;28;20048;-66
2022/06/12 01:34:21;;;;;;;9.68;1.70;;;11.80;99.90;;;;;;5071197;28;20050;-66
2022/06/12 01:37:25;;;;;;;7.05;1.92;;;11.80;99.90;;;;;;5057429;28;20134;-63
2022/06/12 01:40:12;;;;;;;10.88;1.80;;;11.90;99.90;;;;;;5070744;28;20433;-65
2022/06/12 01:43:03;;;;;;;8.82;2.13;;;11.90;99.90;;;;;;5059877;28;20106;-66
2022/06/12 01:45:44;;;;;;;8.45;2.20;;;11.80;99.90;;;;;;5071422;28;20075;-63
2022/06/12 01:48:37;;;;;;;10.40;2.30;;;11.80;99.90;;;;;;5070883;28;20401;-67
2022/06/12 01:51:10;;;;;;;8.27;1.45;;;11.80;99.90;;;;;;5068380;28;20048;-66
2022/06/12 01:53:56;;;;;;;9.02;2.13;;;11.80;99.90;;;;;;5071452;28;20044;-65
2022/06/12 01:56:48;;;;;;;7.45;1.60;;;11.80;99.90;;;;;;5053962;28;20490;-61
2022/06/12 01:59:23;;;;;;;6.68;1.73;;;11.70;99.90;;;;;;5043419;28;20074;-65
2022/06/12 02:01:58;;;;;;;6.50;1.30;;;11.70;99.90;;;;;;5068300;28;20044;-60
2022/06/12 02:04:41;;;;;;;7.55;1.80;;;11.70;99.90;;;;;;5070455;28;20098;-61
2022/06/12 02:07:28;;;;;;;9.15;1.98;;;11.60;99.90;;;;;;5070143;28;20091;-67
2022/06/12 02:10:08;;;;;;;9.50;2.20;;;11.60;99.90;;;;;;5053248;28;20051;-64
2022/06/12 02:15:33;;;;;;;15.45;2.63;;;11.50;99.90;;;;;;5070621;28;19919;-61
2022/06/12 02:18:05;;;;;;;8.57;1.92;;;11.50;99.90;;;;;;5087971;28;20473;-64
2022/06/12 02:20:35;;;;;;;9.90;2.20;;;11.50;99.90;;;;;;5070379;28;20044;-68
2022/06/12 02:23:03;;;;;;;;;;;11.50;99.90;;;;;;5063627;28;20048;-64
2022/06/12 02:25:33;;;;;;;12.77;2.60;;;11.40;99.90;;;;;;5044591;28;19919;-61
2022/06/12 02:28:06;;;;;;;9.88;2.15;;;11.40;99.90;;;;;;5069918;28;20091;-62
2022/06/12 02:30:38;;;;;;;9.00;2.15;;;11.40;99.90;;;;;;5068086;28;20123;-64
2022/06/12 02:33:11;;;;;;;9.85;2.25;;;11.40;99.90;;;;;;5069858;28;20043;-61
2022/06/12 02:35:44;;;;;;;9.13;2.35;;;11.40;99.90;;;;;;5070018;28;20073;-61
2022/06/12 02:38:16;;;;;;;8.50;2.30;;;11.40;99.90;;;;;;5069265;28;20079;-68
2022/06/12 02:40:48;;;;;;;9.20;2.47;;;11.40;99.90;;;;;;5041778;28;20048;-65
2022/06/12 02:43:18;;;;;;;11.85;2.70;;;11.40;99.90;;;;;;5067325;28;20101;-63
2022/06/12 02:45:52;;;;;;;7.88;2.63;;;11.40;99.90;;;;;;5048551;28;20052;-60
2022/06/12 02:48:18;;;;;;;9.35;2.72;;;11.40;99.90;;;;;;5069594;28;20056;-64
2022/06/12 02:51:11;;;;;;;9.52;2.78;;;11.40;99.90;;;;;;5053214;28;20040;-62
2022/06/12 02:53:58;;;;;;;13.82;2.35;;;11.40;99.90;;;;;;5069644;28;20048;-66
2022/06/12 02:56:32;;;;;;;11.48;2.63;;;11.50;99.90;;;;;;5068914;28;20433;-66
2022/06/12 02:59:24;;;;;;;8.55;2.50;;;11.50;99.90;;;;;;5057795;28;20494;-65
2022/06/12 03:02:09;;;;;;;14.30;2.58;;;11.50;99.90;;;;;;5060697;28;20048;-66
2022/06/12 03:05:01;;;;;;;13.73;2.70;;;11.50;99.90;;;;;;5068643;28;20052;-68
2022/06/12 03:07:29;;;;;;;13.35;3.15;;;11.50;99.90;;;;;;5052972;28;20127;-67
2022/06/12 03:09:59;;;;;;;6.32;1.83;;;11.50;99.90;;;;;;5068969;28;20069;-64
2022/06/12 03:12:27;;;;;;;8.25;2.50;;;11.50;99.90;;;;;;5068980;28;20123;-63
2022/06/12 03:14:54;;;;;;;10.77;2.90;;;11.50;99.90;;;;;;5069029;28;20113;-60
2022/06/12 03:17:20;;;;;;;14.27;2.45;;;11.50;99.90;;;;;;5069202;28;20040;-60
2022/06/12 03:19:50;;;;;;;11.77;2.40;;;11.50;99.90;;;;;;5069150;28;20055;-66
2022/06/12 03:22:39;;;;;;;14.85;2.30;;;11.50;99.90;;;;;;5069053;28;20165;-67
2022/06/12 03:25:20;;;;;;;4.93;2.28;;;11.40;99.90;;;;;;5057198;28;20401;-63
2022/06/12 03:27:53;;;;;;;8.45;2.20;;;11.40;99.90;;;;;;5068339;28;20052;-66
2022/06/12 03:30:24;;;;;;;11.95;2.05;;;11.40;99.90;;;;;;5067333;28;20156;-62
2022/06/12 03:33:22;;;;;;;10.57;3.25;;;11.40;99.90;;;;;;5068908;28;20057;-66
2022/06/12 03:36:21;;;;;;;8.57;2.72;;;11.40;99.90;;;;;;5060249;28;20178;-62
2022/06/12 03:39:10;;;;;;;11.82;2.75;;;11.40;99.90;;;;;;5057939;28;20067;-67
2022/06/12 03:42:05;;;;;;;14.75;2.58;;;11.40;99.90;;;;;;5068622;28;20048;-62
2022/06/12 03:44:39;;;;;;;12.07;2.65;;;11.40;99.90;;;;;;5068640;28;20051;-62
2022/06/12 03:47:22;;;;;;;6.57;2.08;;;11.30;99.90;;;;;;5049823;28;20079;-60
2022/06/12 03:49:52;;;;;;;11.00;2.05;;;11.30;99.90;;;;;;5068778;28;20056;-62
2022/06/12 03:52:50;;;;;;;7.07;1.95;;;11.30;99.90;;;;;;5051691;28;20409;-65
2022/06/12 03:58:25;;;;;;;9.35;2.92;;;11.40;99.90;;;;;;5067441;28;20486;-61
2022/06/12 04:00:52;;;;;;;7.82;2.45;;;11.40;99.90;;;;;;5051257;28;20071;-66
2022/06/12 04:03:30;;;;;;;9.40;2.30;;;11.50;99.90;;;;;;5086570;28;20056;-67
2022/06/12 04:06:00;;;;;;;18.25;3.33;;;11.50;99.90;;;;;;5051319;28;20040;-64
2022/06/12 04:08:32;;;;;;;11.45;2.55;;;11.60;99.90;;;;;;5066420;28;20185;-63
2022/06/12 04:10:58;;;;;;;13.20;3.13;;;11.60;99.90;;;;;;5067622;28;20532;-71
2022/06/12 04:13:24;;;;;;;13.48;2.95;;;11.70;99.90;;;;;;5068167;28;20048;-60
2022/06/12 04:16:02;;;;;;;17.73;3.65;;;11.70;99.90;;;;;;5068667;28;20051;-70
2022/06/12 04:18:29;;;;;;;9.07;2.35;;;11.80;99.90;;;;;;5066358;28;20091;-61
2022/06/12 04:20:57;;;;;;;10.68;2.60;;;11.80;99.90;;;;;;5068193;28;20116;-62
2022/06/12 04:23:42;;;;;;;10.73;2.30;;;11.90;99.90;;;;;;5068050;28;20080;-64
2022/06/12 04:26:16;;;;;;;13.52;2.80;;;11.90;99.90;;;;;;5067824;28;20142;-60
2022/06/12 04:28:44;;;;;;;11.63;2.55;;;12.00;99.90;;;;;;5066743;28;20047;-63
2022/06/12 04:31:14;;;;;;;14.30;2.47;;;12.10;99.90;;;;;;5048270;28;20059;-71
2022/06/12 04:34:04;;;;;;;12.48;2.72;;;12.10;99.90;;;;;;5057128;28;20115;-63
2022/06/12 04:36:29;;;;;;;10.88;2.50;;;12.20;99.90;;;;;;5068105;28;20055;-72
2022/06/12 04:38:55;;;;;;;7.35;2.15;;;12.30;99.90;;;;;;5065059;28;20048;-64
2022/06/12 04:41:26;;;;;;;11.90;2.25;;;12.40;99.90;;;;;;5067411;28;20048;-62
2022/06/12 04:43:53;;;;;;;10.43;2.08;;;12.50;99.90;;;;;;5085926;28;20058;-66
2022/06/12 04:46:20;;;;;;;13.40;2.60;;;12.60;99.90;;;;;;5067760;28;20077;-64
2022/06/12 04:48:48;;;;;;;8.38;2.13;;;12.60;99.90;;;;;;5067923;28;20040;-69
2022/06/12 04:51:14;;;;;;;12.70;2.42;;;12.70;99.90;;;;;;5064752;28;20047;-66
2022/06/12 04:53:42;;;;;;;7.80;2.15;;;12.80;99.90;;;;;;5067741;28;20093;-65
2022/06/12 04:56:10;;;;;;;5.53;1.92;;;12.90;99.90;;;;;;5067553;28;20161;-63
2022/06/12 04:58:37;;;;;;;12.18;2.55;;;12.90;99.90;;;;;;5085733;28;20047;-65
2022/06/12 05:01:04;;;;;;;15.20;2.38;;;13.00;99.90;;;;;;5082991;28;20070;-67
2022/06/12 05:03:30;;;;;;;12.68;2.70;;;13.20;99.90;;;;;;5066410;28;20060;-70
2022/06/12 05:05:56;;;;;;;8.27;2.17;;;13.50;99.90;;;;;;5050013;28;20040;-64
2022/06/12 05:08:23;;;;;;;11.27;2.08;;;13.80;99.90;;;;;;5049267;28;20044;-68
2022/06/12 05:10:49;;;;;;;12.07;2.20;;;14.00;99.90;;;;;;5062850;28;20038;-64
2022/06/12 05:13:18;;;;;;;11.60;1.70;;;14.20;99.90;;;;;;5084223;28;20036;-70
2022/06/12 05:15:45;;;;;;;16.58;2.78;;;14.20;99.90;;;;;;5049898;28;20149;-61
2022/06/12 05:18:13;;;;;;;11.95;1.92;;;14.30;99.90;;;;;;5066096;28;20094;-63
2022/06/12 05:20:40;;;;;;;9.30;1.77;;;14.40;99.90;;;;;;5064554;28;20048;-61
2022/06/12 05:23:07;;;;;;;10.07;2.53;;;14.50;99.90;;;;;;5065524;28;20184;-70
2022/06/12 05:25:33;;;;;;;17.08;2.30;;;14.60;99.90;;;;;;5084727;28;20526;-62
2022/06/12 05:28:00;;;;;;;14.23;2.90;;;14.70;99.90;;;;;;5049361;28;20478;-61
2022/06/12 05:30:29;;;;;;;10.40;2.00;;;14.80;99.90;;;;;;5049468;28;20116;-64
2022/06/12 05:32:57;;;;;;;8.93;1.92;;;14.80;99.90;;;;;;5065650;28;20122;-66
2022/06/12 05:35:23;;;;;;;15.10;2.25;;;14.90;99.90;;;;;;5065676;28;20514;-65
2022/06/12 05:37:51;;;;;;;15.57;2.65;;;15.00;99.90;;;;;;5066856;28;20088;-66
2022/06/12 05:40:20;;;;;;;11.38;2.47;;;15.00;99.90;;;;;;5065942;28;20487;-65
2022/06/12 05:42:46;;;;;;;;;;;15.10;99.90;;;;;;5065232;28;20048;-61
2022/06/12 05:45:20;;;;;;;12.93;2.53;;;15.10;99.90;;;;;;5048848;28;19920;-62
2022/06/12 05:48:07;;;;;;;10.57;2.33;;;15.00;99.90;;;;;;5066100;28;20475;-66
2022/06/12 05:50:35;;;;;;;14.70;3.30;;;15.10;99.90;;;;;;5055593;28;20071;-61
2022/06/12 05:53:02;;;;;;;13.35;2.42;;;15.10;99.90;;;;;;5068426;28;20044;-63
2022/06/12 05:55:28;;;;;;;15.65;2.67;;;15.20;99.90;;;;;;5073916;28;20196;-65
2022/06/12 05:57:54;;;;;;;12.77;2.67;;;15.30;99.90;;;;;;5053191;28;20044;-68
2022/06/12 06:00:27;;;;;;;22.20;2.92;;;15.40;99.90;;;;;;5068551;28;20050;-62
2022/06/12 06:02:52;;;;;;;22.52;2.83;;;15.40;99.90;;;;;;5066656;28;20095;-59
2022/06/12 06:05:19;;;;;;;13.77;2.80;;;15.50;99.90;;;;;;5075713;28;20067;-60
2022/06/12 06:07:46;;;;;;;13.27;2.50;;;15.50;99.90;;;;;;5069639;28;20043;-64
2022/06/12 06:10:19;;;;;;;13.55;2.78;;;15.50;99.90;;;;;;5049995;28;20249;-66
2022/06/12 06:12:45;;;;;;;19.30;3.05;;;15.50;99.90;;;;;;5069969;28;20424;-63
2022/06/12 06:15:12;;;;;;;18.50;3.38;;;15.50;99.90;;;;;;5067165;28;20052;-62
2022/06/12 06:17:38;;;;;;;22.40;3.28;;;15.50;99.90;;;;;;5069200;28;20048;-71
2022/06/12 06:20:05;;;;;;;14.00;2.80;;;15.50;99.90;;;;;;5069491;28;20052;-64
2022/06/12 06:22:31;;;;;;;17.02;3.00;;;15.50;99.90;;;;;;5068529;28;20043;-69
2022/06/12 06:24:58;;;;;;;16.15;3.42;;;15.60;99.90;;;;;;5050732;28;20060;-71
2022/06/12 06:27:24;;;;;;;26.27;4.03;;;15.70;99.90;;;;;;5086888;28;20058;-60
2022/06/12 06:29:50;;;;;;;13.93;3.55;;;15.70;99.90;;;;;;5069439;28;20482;-68
2022/06/12 06:32:17;;;;;;;15.23;4.95;;;15.80;99.90;;;;;;5052229;28;20055;-68
2022/06/12 06:34:42;;;;;;;27.13;4.60;;;15.80;99.90;;;;;;5066412;28;20425;-66
2022/06/12 06:37:11;;;;;;;18.80;4.00;;;15.90;99.90;;;;;;5049766;28;20044;-64
2022/06/12 06:39:38;;;;;;;20.60;3.85;;;16.00;99.90;;;;;;5064092;28;20482;-60
2022/06/12 06:42:05;;;;;;;17.02;3.53;;;16.10;99.90;;;;;;5069063;28;20052;-62
2022/06/12 06:47:17;;;;;;;11.73;2.95;;;16.40;99.90;;;;;;5068610;28;20052;-60
2022/06/12 06:49:43;;;;;;;20.05;3.92;;;16.60;99.90;;;;;;5068477;28;20047;-67
2022/06/12 06:52:09;;;;;;;15.48;3.55;;;16.70;99.90;;;;;;5068768;28;20052;-66
2022/06/12 06:54:35;;;;;;;16.05;3.00;;;17.00;99.90;;;;;;5068279;28;20036;-60
2022/06/12 06:57:00;;;;;;;16.23;3.05;;;17.20;99.90;;;;;;5068584;28;20055;-63
2022/06/12 06:59:27;;;;;;;18.15;3.47;;;17.30;99.90;;;;;;5068194;28;20499;-60
2022/06/12 07:01:52;;;;;;;17.50;3.00;;;17.30;99.90;;;;;;5065003;28;20044;-65
2022/06/12 07:04:19;;;;;;;23.08;4.80;;;17.40;99.90;;;;;;5068265;28;20052;-65
2022/06/12 07:06:45;;;;;;;18.90;3.33;;;17.40;99.90;;;;;;5068493;28;20442;-67
2022/06/12 07:09:11;;;;;;;18.20;3.63;;;17.40;99.90;;;;;;5068323;28;20079;-65
2022/06/12 07:11:38;;;;;;;16.83;3.42;;;17.60;99.90;;;;;;5068552;28;20396;-61
2022/06/12 07:14:03;;;;;;;16.85;3.00;;;17.90;99.90;;;;;;5067809;28;20040;-61
2022/06/12 07:16:31;;;;;;;18.98;3.53;;;18.20;99.90;;;;;;5068160;28;20044;-61
2022/06/12 07:18:57;;;;;;;17.02;3.70;;;18.60;99.90;;;;;;5053836;28;20217;-65
2022/06/12 07:21:23;;;;;;;15.73;3.63;;;19.00;99.90;;;;;;5067387;28;20096;-68
2022/06/12 07:23:49;;;;;;;15.05;2.97;;;19.40;99.90;;;;;;5068122;28;20544;-63
2022/06/12 07:26:37;;;;;;;15.70;3.67;;;19.90;99.90;;;;;;5065897;28;20059;-69
2022/06/12 07:29:03;;;;;;;16.48;3.03;;;20.20;99.90;;;;;;5063382;28;20482;-65
2022/06/12 07:31:30;;;;;;;24.77;3.70;;;20.50;99.90;;;;;;5062311;28;20044;-60
2022/06/12 07:33:56;;;;;;;14.98;3.05;;;20.80;99.90;;;;;;5065925;28;20101;-68
2022/06/12 07:36:22;;;;;;;13.77;3.30;;;21.10;99.90;;;;;;5047166;28;20052;-60
2022/06/12 07:38:49;;;;;;;13.40;3.78;;;21.30;98.20;;;;;;5065791;28;20043;-68
2022/06/12 07:41:16;;;;;;;16.35;3.53;;;21.40;98.60;;;;;;5065446;28;20773;-65
2022/06/12 07:43:43;;;;;;;20.60;3.47;;;21.60;99.80;;;;;;5067105;28;20044;-71
2022/06/12 07:46:11;;;;;;;16.58;3.40;;;21.40;91.70;;;;;;5050330;28;20486;-63
2022/06/12 07:48:38;;;;;;;19.45;3.20;;;21.00;95.30;;;;;;5064124;28;20048;-71
2022/06/12 07:51:07;;;;;;;16.00;2.80;;;20.70;93.50;;;;;;5065189;28;20531;-70
2022/06/12 07:53:34;;;;;;;15.90;2.93;;;20.50;98.40;;;;;;5063073;28;20083;-66
2022/06/12 07:55:59;;;;;;;12.48;3.28;;;20.50;96.30;;;;;;5049525;28;20039;-67
2022/06/12 07:58:27;;;;;;;26.52;4.28;;;20.60;95.50;;;;;;5064746;28;20044;-64
2022/06/12 08:00:57;;;;;;;15.75;3.50;;;20.80;94.60;;;;;;5062826;28;20060;-60
2022/06/12 08:03:24;;;;;;;20.60;3.20;;;20.70;92.90;;;;;;5048687;28;20130;-67
2022/06/12 08:05:50;;;;;;;18.92;3.50;;;21.00;94.00;;;;;;5063965;28;20036;-63
2022/06/12 08:08:17;;;;;;;14.52;2.70;;;21.00;96.70;;;;;;5062790;28;20378;-66
2022/06/12 08:10:43;;;;;;;13.85;2.80;;;20.80;95.10;;;;;;5060440;28;20498;-70
2022/06/12 08:13:14;;;;;;;16.88;3.28;;;20.70;92.10;;;;;;5063483;28;20400;-66
2022/06/12 08:15:46;;;;;;;12.20;2.80;;;21.00;94.00;;;;;;5080656;28;20382;-59
2022/06/12 08:18:13;;;;;;;16.95;3.20;;;21.10;91.50;;;;;;5064752;28;20119;-62
2022/06/12 08:20:45;;;;;;;17.08;2.75;;;20.90;89.60;;;;;;5065241;28;20052;-61
2022/06/12 08:23:27;;;;;;;21.63;3.05;;;20.90;92.30;;;;;;5037757;28;20080;-70
2022/06/12 08:25:55;;;;;;;12.35;2.83;;;21.10;94.50;;;;;;5048841;28;20040;-65
2022/06/12 08:28:23;;;;;;;12.93;2.72;;;21.60;91.40;;;;;;5046388;28;20048;-60
2022/06/12 08:30:49;;;;;;;14.13;3.28;;;21.90;91.50;;;;;;5053927;28;20528;-66
2022/06/12 08:33:14;;;;;;;9.98;3.15;;;21.90;82.50;;;;;;5066958;28;20571;-64
2022/06/12 08:35:40;;;;;;;12.40;2.75;;;22.00;82.60;;;;;;5066593;28;20115;-60
2022/06/12 08:38:06;;;;;;;14.27;3.10;;;22.10;76.20;;;;;;5066842;28;20044;-64
2022/06/12 08:40:40;;;;;;;13.10;2.80;;;22.00;75.60;;;;;;5064976;28;20059;-67
2022/06/12 08:43:36;;;;;;;14.40;2.75;;;22.00;74.40;;;;;;5064578;28;21077;-69
2022/06/12 08:46:13;;;;;;;15.88;2.63;;;21.80;75.30;;;;;;5052487;28;21272;-71
2022/06/12 08:48:50;;;;;;;10.27;1.88;;;21.70;82.00;;;;;;5039500;28;20047;-61
2022/06/12 08:51:23;;;;;;;9.38;2.42;;;21.70;74.30;;;;;;5065975;28;20047;-60
2022/06/12 08:54:14;;;;;;;9.25;2.17;;;21.60;57.80;;;;;;5076692;28;20123;-69
2022/06/12 08:56:58;;;;;;;9.13;2.08;;;21.20;72.00;;;;;;5062565;28;20054;-61
2022/06/12 08:59:48;;;;;;;8.82;2.55;;;21.20;55.60;;;;;;5049788;28;20514;-60
2022/06/12 09:02:30;;;;;;;8.13;2.38;;;20.80;65.00;;;;;;5056974;28;20064;-62
2022/06/12 09:04:56;;;;;;;10.68;2.88;;;20.60;82.60;;;;;;5066649;28;20044;-65
2022/06/12 09:07:27;;;;;;;12.25;3.40;;;20.70;92.00;;;;;;5063105;28;20048;-65
2022/06/12 09:09:59;;;;;;;10.63;2.13;;;21.00;93.20;;;;;;5045782;28;20044;-64
2022/06/12 09:12:43;;;;;;;9.57;2.22;;;21.50;80.70;;;;;;5064598;28;20066;-65
2022/06/12 09:15:13;;;;;;;10.13;2.63;;;21.70;67.10;;;;;;5066727;28;20059;-65
2022/06/12 09:17:57;;;;;;;13.25;2.50;;;21.60;72.80;;;;;;5066429;28;20048;-69
2022/06/12 09:20:49;;;;;;;12.93;2.85;;;21.60;74.70;;;;;;5066572;28;20182;-68
2022/06/12 09:23:30;;;;;;;13.68;2.15;;;21.50;78.90;;;;;;5038871;28;20067;-69
2022/06/12 09:26:06;;;;;;;14.48;2.97;;;21.50;71.40;;;;;;5063659;28;20050;-64
2022/06/12 09:28:43;;;;;;;10.45;2.65;;;21.50;66.20;;;;;;5087615;28;20060;-63
2022/06/12 09:31:14;;;;;;;6.35;2.13;;;21.70;80.00;;;;;;5053580;28;20600;-68
2022/06/12 09:33:46;;;;;;;9.02;2.72;;;21.80;76.20;;;;;;5062160;28;20106;-60
2022/06/12 09:36:33;;;;;;;9.05;2.70;;;22.10;74.60;;;;;;5053281;28;20482;-64
2022/06/12 09:39:19;;;;;;;11.50;3.10;;;22.30;77.60;;;;;;5070112;28;20083;-67
2022/06/12 09:41:53;;;;;;;12.65;2.67;;;22.60;58.50;;;;;;5068482;28;20521;-66
2022/06/12 09:44:25;;;;;;;7.53;2.58;;;23.00;47.70;;;;;;5065706;28;20397;-70
2022/06/12 09:47:11;;;;;;;9.50;2.67;;;23.30;53.20;;;;;;5066043;28;20039;-70
2022/06/12 09:50:12;;;;;;;7.82;2.42;;;23.10;20.30;;;;;;5069162;28;20039;-62
2022/06/12 09:52:37;;;;;;;13.18;3.33;;;22.60;23.50;;;;;;5052424;28;20490;-62
2022/06/12 09:55:14;;;;;;;7.07;2.17;;;22.00;31.70;;;;;;5066578;28;20082;-62
2022/06/12 09:57:57;;;;;;;13.70;3.28;;;22.00;45.60;;;;;;5051911;28;20034;-63
2022/06/12 10:00:39;;;;;;;12.77;2.60;;;22.10;61.00;;;;;;5049228;28;20044;-64
2022/06/12 10:03:13;;;;;;;10.30;2.60;;;22.20;72.70;;;;;;5082923;28;20596;-70
2022/06/12 10:06:27;;;;;;;9.52;2.22;;;22.30;52.90;;;;;;5083226;28;20153;-66
2022/06/12 10:09:08;;;;;;;13.07;2.75;;;22.10;49.10;;;;;;5035690;28;20095;-66
2022/06/12 10:11:41;;;;;;;8.48;2.33;;;21.70;54.00;;;;;;5065402;28;20040;-62
2022/06/12 10:14:33;;;;;;;14.77;2.63;;;21.20;59.10;;;;;;5063309;28;20052;-65
2022/06/12 10:17:18;;;;;;;13.25;2.38;;;21.00;69.30;;;;;;5084184;28;20044;-71
2022/06/12 10:19:51;;;;;;;9.05;2.38;;;21.00;73.00;;;;;;5079492;28;20410;-67
2022/06/12 10:22:34;;;;;;;7.50;2.10;;;21.00;65.30;;;;;;5064944;28;20048;-63
2022/06/12 10:25:02;;;;;;;14.10;2.53;;;20.70;74.20;;;;;;5048139;28;20042;-59
2022/06/12 10:27:49;;;;;;;9.52;2.47;;;20.60;79.60;;;;;;5064988;28;20051;-60
2022/06/12 10:30:23;;;;;;;10.18;3.13;;;20.30;86.60;;;;;;5068129;28;20047;-59
2022/06/12 10:32:55;;;;;;;13.88;3.03;;;19.80;93.30;;;;;;5067346;28;20122;-66
2022/06/12 10:35:24;;;;;;;10.75;2.60;;;19.70;95.20;;;;;;5066041;28;20504;-62
2022/06/12 10:37:50;;;;;;;7.97;2.70;;;19.70;97.90;;;;;;5063399;28;20036;-66
2022/06/12 10:40:22;;;;;;;14.57;3.58;;;19.90;97.70;;;;;;5065465;28;20317;-61
2022/06/12 10:43:10;;;;;;;11.68;3.20;;;20.20;93.10;;;;;;5049433;28;20040;-67
2022/06/12 10:45:39;;;;;;;11.73;2.72;;;20.50;93.10;;;;;;5065741;28;20052;-67
2022/06/12 10:48:26;;;;;;;10.07;2.60;;;20.80;81.80;;;;;;5033230;28;20618;-62
2022/06/12 10:50:55;;;;;;;11.90;2.70;;;20.70;84.40;;;;;;5067778;28;20044;-60
2022/06/12 10:53:24;;;;;;;7.30;2.53;;;20.50;79.10;;;;;;5057467;28;20075;-60
2022/06/12 10:56:08;;;;;;;7.75;2.08;;;20.10;55.10;;;;;;5085274;28;20036;-66
2022/06/12 10:59:03;;;;;;;8.23;1.88;;;19.80;57.70;;;;;;5066823;28;20040;-68
2022/06/12 11:01:46;;;;;;;5.38;1.98;;;20.00;73.10;;;;;;5064433;28;20068;-63
2022/06/12 11:04:19;;;;;;;5.13;1.38;;;20.30;64.00;;;;;;5059605;28;20056;-69
2022/06/12 11:06:56;;;;;;;7.15;1.92;;;20.60;27.50;;;;;;5045279;28;20116;-61
2022/06/12 11:09:51;;;;;;;4.45;1.20;;;20.80;10.50;;;;;;5064494;28;20222;-65
2022/06/12 11:12:32;;;;;;;6.40;1.40;;;21.20;19.00;;;;;;5014205;28;20118;-67
2022/06/12 11:15:35;;;;;;;6.53;1.30;;;21.00;27.20;;;;;;5067641;28;20079;-66
2022/06/12 11:18:18;;;;;;;5.75;1.27;;;20.80;24.80;;;;;;5047480;28;20494;-65
2022/06/12 11:20:59;;;;;;;2.75;1.33;;;20.90;20.40;;;;;;5063417;28;20044;-64
2022/06/12 11:23:43;;;;;;;4.90;1.42;;;20.90;19.50;;;;;;5062473;28;20048;-64
2022/06/12 11:26:18;;;;;;;6.53;1.67;;;21.00;18.80;;;;;;5063887;28;20056;-63
2022/06/12 11:28:58;;;;;;;6.28;1.52;;;20.90;11.00;;;;;;5065914;28;20486;-65
2022/06/12 11:31:23;;;;;;;2.72;1.10;;;21.00;17.80;;;;;;5044336;28;20036;-66
2022/06/12 11:34:16;;;;;;;4.55;1.55;;;21.10;10.00;;;;;;5064523;28;20032;-65
2022/06/12 11:37:08;;;;;;;3.47;1.23;;;20.90;11.70;;;;;;5063115;28;20075;-69
2022/06/12 11:39:41;;;;;;;9.70;1.80;;;20.90;12.30;;;;;;5065516;28;20498;-70
2022/06/12 11:42:27;;;;;;;5.60;1.50;;;20.90;18.10;;;;;;5056215;28;20110;-67
2022/06/12 11:45:16;;;;;;;4.88;1.42;;;20.90;16.40;;;;;;5064810;28;20166;-68
2022/06/12 11:47:57;;;;;;;3.58;1.00;;;20.90;19.90;;;;;;5054407;28;20051;-71
2022/06/12 11:50:35;;;;;;;5.38;1.75;;;21.00;22.40;;;;;;5063266;28;20139;-66
2022/06/12 11:53:18;;;;;;;5.80;1.40;;;20.80;12.20;;;;;;5071074;28;20134;-71
2022/06/12 11:55:58;;;;;;;3.45;1.40;;;20.90;34.50;;;;;;5060928;28;20494;-68
2022/06/12 11:58:40;;;;;;;4.72;1.48;;;20.90;23.40;;;;;;5063451;28;20480;-66
2022/06/12 12:01:10;;;;;;;4.10;1.30;;;20.90;20.90;;;;;;5064217;28;20823;-67
2022/06/12 12:04:21;;;;;;;7.32;1.48;;;21.20;15.20;;;;;;5064165;28;20108;-71
2022/06/12 12:07:11;;;;;;;3.33;1.42;;;21.40;13.30;;;;;;5080252;28;20048;-63
2022/06/12 12:09:52;;;;;;;7.68;1.30;;;21.60;12.30;;;;;;5046881;28;20614;-71
2022/06/12 12:12:25;;;;;;;4.53;1.50;;;21.50;9.80;;;;;;5079194;28;20383;-71
2022/06/12 12:14:54;;;;;;;4.20;1.35;;;21.50;11.00;;;;;;5061721;28;20040;-69
2022/06/12 12:17:42;;;;;;;10.05;1.60;;;21.60;18.10;;;;;;5066656;28;20058;-65
2022/06/12 12:20:22;;;;;;;3.17;1.50;;;21.50;11.90;;;;;;5081738;28;20051;-66
2022/06/12 12:22:58;;;;;;;4.15;1.52;;;20.90;16.20;;;;;;5063581;28;20100;-64
2022/06/12 12:25:47;;;;;;;5.65;1.60;;;20.50;19.60;;;;;;5063363;28;20058;-69
2022/06/12 12:28:23;;;;;;;6.95;1.77;;;20.50;21.90;;;;;;5060742;28;20040;-68
2022/06/12 12:30:51;;;;;;;3.80;1.48;;;20.70;35.50;;;;;;5058703;28;20044;-68
2022/06/12 12:33:19;;;;;;;5.10;1.90;;;20.60;21.50;;;;;;5065997;28;20050;-71
2022/06/12 12:41:23;;;;;;;3.97;1.70;;;20.90;18.40;;;;;;5064004;28;20041;-59
2022/06/12 12:44:00;;;;;;;6.05;1.92;;;21.00;33.90;;;;;;5046036;28;20438;-64
2022/06/12 12:46:41;;;;;;;5.97;1.83;;;20.90;16.20;;;;;;5084503;28;20051;-71
2022/06/12 12:49:07;;;;;;;11.05;1.98;;;20.60;30.40;;;;;;5063306;28;20502;-66
2022/06/12 12:51:35;;;;;;;3.88;1.60;;;20.60;36.00;;;;;;5065122;28;20130;-69
2022/06/12 12:54:12;;;;;;;5.25;1.42;;;20.70;27.80;;;;;;5060164;28;20044;-71
2022/06/12 12:56:51;;;;;;;5.93;1.77;;;20.70;16.70;;;;;;5066739;28;20132;-71
2022/06/12 12:59:18;;;;;;;6.53;1.73;;;20.60;29.30;;;;;;5065485;28;20718;-68
2022/06/12 13:01:47;;;;;;;5.13;1.38;;;20.50;36.80;;;;;;5069206;28;20388;-63
2022/06/12 13:04:20;;;;;;;5.22;1.73;;;20.40;21.10;;;;;;5080233;28;20449;-63
2022/06/12 13:06:51;;;;;;;6.43;1.90;;;20.60;19.90;;;;;;5070508;28;20055;-69
2022/06/12 13:09:33;;;;;;;4.07;1.75;;;20.60;19.70;;;;;;5085112;28;20413;-64
2022/06/12 13:12:25;;;;;;;10.98;1.98;;;20.50;33.90;;;;;;5053296;28;20048;-66
2022/06/12 13:15:12;;;;;;;5.45;1.70;;;20.30;40.50;;;;;;5052910;28;20048;-73
2022/06/12 13:18:03;;;;;;;7.90;2.15;;;20.70;27.20;;;;;;5053286;28;20052;-72
2022/06/12 13:20:50;;;;;;;5.22;1.42;;;20.80;35.90;;;;;;5068507;28;20713;-71
2022/06/12 13:23:19;;;;;;;6.68;1.42;;;21.00;18.00;;;;;;5057555;28;20086;-69
2022/06/12 13:25:48;;;;;;;5.80;1.67;;;21.20;7.60;;;;;;5051806;28;20534;-67
2022/06/12 13:28:25;;;;;;;6.63;1.63;;;21.10;9.00;;;;;;5069070;28;20062;-71
2022/06/12 13:30:54;;;;;;;4.57;1.45;;;20.90;10.80;;;;;;5051680;28;20123;-71
2022/06/12 13:33:30;;;;;;;5.00;1.70;;;20.80;16.00;;;;;;5054076;28;20044;-67